createdAt,value
2019-06-15T00:01:27.015Z,99507.16
2019-06-15T00:04:00.982Z,99496.30
2019-06-15T00:06:37.808Z,99503.84
2019-06-15T00:09:15.470Z,99506.77
2019-06-15T00:11:51.912Z,99497.16
2019-06-15T00:14:24.642Z,99494.56
2019-06-15T00:16:56.983Z,99488.16
2019-06-15T00:19:29.166Z,99496.53
2019-06-15T00:22:01.484Z,99488.82
2019-06-15T00:24:35.581Z,99491.41
2019-06-15T00:27:08.157Z,99498.81
2019-06-15T00:29:40.357Z,99507.04
2019-06-15T00:32:12.697Z,99503.86
2019-06-15T00:34:46.574Z,99499.27
2019-06-15T00:37:18.918Z,99493.00
2019-06-15T00:39:52.058Z,99488.37
2019-06-15T00:42:24.371Z,99489.49
2019-06-15T00:44:56.641Z,99480.89
2019-06-15T00:47:29.026Z,99474.37
2019-06-15T00:50:01.239Z,99466.08
2019-06-15T00:52:33.496Z,99452.67
2019-06-15T00:55:06.071Z,99445.69
2019-06-15T00:57:38.424Z,99443.34
2019-06-15T01:00:14.050Z,99442.37
2019-06-15T01:02:46.333Z,99435.14
2019-06-15T01:05:18.498Z,99428.83
2019-06-15T01:07:50.783Z,99413.98
2019-06-15T01:10:23.183Z,99410.02
2019-06-15T01:12:55.491Z,99406.49
2019-06-15T01:15:27.692Z,99400.00
2019-06-15T01:17:59.956Z,99399.11
2019-06-15T01:20:32.223Z,99391.55
2019-06-15T01:23:04.502Z,99389.61
2019-06-15T01:25:36.682Z,99391.73
2019-06-15T01:28:08.988Z,99389.80
2019-06-15T01:30:41.269Z,99390.70
2019-06-15T01:33:14.497Z,99388.85
2019-06-15T01:35:46.732Z,99387.17
2019-06-15T01:38:18.954Z,99385.00
2019-06-15T01:40:51.316Z,99380.02
2019-06-15T01:43:23.821Z,99381.29
2019-06-15T01:45:56.112Z,99379.25
2019-06-15T01:48:28.367Z,99378.91
2019-06-15T01:51:00.612Z,99377.05
2019-06-15T01:53:32.906Z,99377.73
2019-06-15T01:56:05.138Z,99371.08
2019-06-15T01:58:37.395Z,99367.55
2019-06-15T02:01:09.635Z,99360.20
2019-06-15T02:03:42.367Z,99367.30
2019-06-15T02:06:14.587Z,99363.94
2019-06-15T02:08:46.850Z,99367.06
2019-06-15T02:11:19.079Z,99371.08
2019-06-15T02:13:51.339Z,99376.22
2019-06-15T02:16:23.963Z,99380.80
2019-06-15T02:18:56.195Z,99373.71
2019-06-15T02:21:28.579Z,99376.69
2019-06-15T02:24:00.948Z,99379.45
2019-06-15T02:26:33.218Z,99378.48
2019-06-15T02:29:05.434Z,99381.52
2019-06-15T02:31:37.808Z,99380.92
2019-06-15T02:34:10.147Z,99381.13
2019-06-15T02:36:42.432Z,99379.12
2019-06-15T02:39:14.733Z,99380.41
2019-06-15T02:41:47.124Z,99384.23
2019-06-15T02:44:19.436Z,99377.39
2019-06-15T02:46:51.692Z,99369.78
2019-06-15T02:49:24.151Z,99375.09
2019-06-15T02:51:56.425Z,99380.76
2019-06-15T02:54:28.713Z,99374.54
2019-06-15T02:57:01.037Z,99369.66
2019-06-15T02:59:33.306Z,99367.11
2019-06-15T03:02:05.597Z,99361.81
2019-06-15T03:04:37.807Z,99342.30
2019-06-15T03:07:10.841Z,99328.77
2019-06-15T03:09:43.083Z,99317.88
2019-06-15T03:12:15.303Z,99301.88
2019-06-15T03:14:47.512Z,99297.89
2019-06-15T03:17:19.880Z,99302.72
2019-06-15T03:19:52.116Z,99310.75
2019-06-15T03:22:24.387Z,99321.62
2019-06-15T03:24:56.566Z,99325.41
2019-06-15T03:27:28.838Z,99337.84
2019-06-15T03:30:00.997Z,99337.42
2019-06-15T03:32:36.556Z,99336.66
2019-06-15T03:35:09.567Z,99335.17
2019-06-15T03:37:41.782Z,99336.31
2019-06-15T03:40:14.110Z,99335.40
2019-06-15T03:42:46.398Z,99334.28
2019-06-15T03:45:18.637Z,99348.69
2019-06-15T03:47:50.888Z,99361.75
2019-06-15T03:50:36.417Z,99366.45
2019-06-15T03:53:20.161Z,99367.79
2019-06-15T03:55:52.457Z,99372.88
2019-06-15T03:58:24.711Z,99396.64
2019-06-15T04:01:33.163Z,99427.75
2019-06-15T04:04:05.387Z,99448.59
2019-06-15T04:06:37.611Z,99448.95
2019-06-15T04:09:09.863Z,99437.00
2019-06-15T04:11:42.175Z,99424.40
2019-06-15T04:14:14.367Z,99429.70
2019-06-15T04:16:46.684Z,99429.69
2019-06-15T04:19:18.947Z,99428.45
2019-06-15T04:21:51.189Z,99426.67
2019-06-15T04:24:23.443Z,99426.05
2019-06-15T04:26:55.711Z,99430.50
2019-06-15T04:29:28.592Z,99436.33
2019-06-15T04:32:00.862Z,99442.55
2019-06-15T04:34:33.123Z,99439.20
2019-06-15T04:37:05.393Z,99445.29
2019-06-15T04:39:37.646Z,99449.59
2019-06-15T04:42:09.959Z,99451.81
2019-06-15T04:44:42.179Z,99454.83
2019-06-15T04:47:14.407Z,99455.75
2019-06-15T04:49:46.580Z,99449.75
2019-06-15T04:52:18.800Z,99453.21
2019-06-15T04:54:51.023Z,99453.16
2019-06-15T04:57:23.303Z,99454.42
2019-06-15T04:59:55.503Z,99464.69
2019-06-15T05:02:27.884Z,99460.23
2019-06-15T05:05:00.174Z,99452.91
2019-06-15T05:07:32.467Z,99447.93
2019-06-15T05:10:05.782Z,99443.44
2019-06-15T05:12:38.039Z,99447.14
2019-06-15T05:15:11.452Z,99449.84
2019-06-15T05:17:46.287Z,99458.12
2019-06-15T05:20:18.842Z,99458.04
2019-06-15T05:22:51.150Z,99464.05
2019-06-15T05:25:23.398Z,99464.14
2019-06-15T05:27:55.705Z,99464.13
2019-06-15T05:30:27.942Z,99462.60
2019-06-15T05:33:00.267Z,99465.05
2019-06-15T05:35:32.585Z,99476.26
2019-06-15T05:38:05.056Z,99476.42
2019-06-15T05:40:37.288Z,99476.17
2019-06-15T05:43:11.096Z,99486.48
2019-06-15T05:45:46.783Z,99494.14
2019-06-15T05:48:22.421Z,99498.54
2019-06-15T05:50:54.919Z,99486.23
2019-06-15T05:53:27.349Z,99493.66
2019-06-15T05:56:00.024Z,99497.62
2019-06-15T05:58:32.447Z,99502.25
2019-06-15T06:01:06.245Z,99503.50
2019-06-15T06:03:39.419Z,99504.26
2019-06-15T06:06:11.785Z,99503.58
2019-06-15T06:08:44.127Z,99499.98
2019-06-15T06:11:21.563Z,99505.80
2019-06-15T06:13:55.035Z,99501.30
2019-06-15T06:16:27.465Z,99502.75
2019-06-15T06:19:00.132Z,99496.34
2019-06-15T06:21:32.460Z,99496.26
2019-06-15T06:24:04.809Z,99497.68
2019-06-15T06:26:37.067Z,99499.45
2019-06-15T06:29:09.325Z,99503.23
2019-06-15T06:31:42.135Z,99502.65
2019-06-15T06:34:15.240Z,99503.95
2019-06-15T06:36:47.501Z,99505.22
2019-06-15T06:39:19.797Z,99506.83
2019-06-15T06:41:52.074Z,99504.08
2019-06-15T06:44:24.402Z,99513.03
2019-06-15T06:46:56.724Z,99522.47
2019-06-15T06:49:31.406Z,99533.69
2019-06-15T06:52:16.694Z,99539.61
2019-06-15T06:54:49.660Z,99544.59
2019-06-15T06:57:21.931Z,99547.05
2019-06-15T06:59:54.323Z,99558.40
2019-06-15T07:02:26.628Z,99552.33
2019-06-15T07:04:59.063Z,99547.85
2019-06-15T07:07:31.783Z,99553.19
2019-06-15T07:10:06.434Z,99560.89
2019-06-15T07:12:38.731Z,99562.74
2019-06-15T07:15:11.045Z,99558.01
2019-06-15T07:17:45.251Z,99551.57
2019-06-15T07:20:17.722Z,99549.23
2019-06-15T07:22:50.082Z,99550.78
2019-06-15T07:25:22.398Z,99553.65
2019-06-15T07:28:07.177Z,99555.48
2019-06-15T07:30:41.346Z,99565.63
2019-06-15T07:33:15.037Z,99566.56
2019-06-15T07:35:47.556Z,99565.44
2019-06-15T07:38:20.006Z,99564.59
2019-06-15T07:40:52.231Z,99565.94
2019-06-15T07:43:25.344Z,99559.56
2019-06-15T07:45:58.191Z,99554.34
2019-06-15T07:48:30.502Z,99551.13
2019-06-15T07:51:02.802Z,99556.41
2019-06-15T07:53:35.147Z,99556.49
2019-06-15T07:56:07.371Z,99552.80
2019-06-15T07:58:39.670Z,99554.08
2019-06-15T08:01:12.758Z,99559.97
2019-06-15T08:03:45.035Z,99561.30
2019-06-15T08:06:17.263Z,99562.62
2019-06-15T08:08:49.529Z,99566.21
2019-06-15T08:11:21.775Z,99576.83
2019-06-15T08:13:54.096Z,99579.03
2019-06-15T08:16:26.939Z,99581.50
2019-06-15T08:18:59.161Z,99586.62
2019-06-15T08:21:32.027Z,99587.09
2019-06-15T08:24:06.141Z,99599.18
2019-06-15T08:26:38.454Z,99603.89
2019-06-15T08:29:10.794Z,99594.79
2019-06-15T08:31:43.850Z,99603.93
2019-06-15T08:34:16.083Z,99605.11
2019-06-15T08:36:49.325Z,99611.55
2019-06-15T08:39:21.573Z,99618.14
2019-06-15T08:41:56.786Z,99624.84
2019-06-15T08:44:29.357Z,99626.01
2019-06-15T08:47:02.425Z,99631.67
2019-06-15T08:49:34.696Z,99639.03
2019-06-15T08:52:07.037Z,99657.83
2019-06-15T08:54:39.349Z,99668.34
2019-06-15T08:57:19.714Z,99666.27
2019-06-15T08:59:52.148Z,99672.25
2019-06-15T09:02:24.472Z,99685.77
2019-06-15T09:04:57.925Z,99683.02
2019-06-15T09:07:30.204Z,99688.82
2019-06-15T09:10:02.528Z,99693.80
2019-06-15T09:12:34.876Z,99698.86
2019-06-15T09:15:07.298Z,99698.98
2019-06-15T09:17:38.856Z,99701.58
2019-06-15T09:20:11.245Z,99711.00
2019-06-15T09:22:43.482Z,99713.03
2019-06-15T09:25:15.827Z,99714.53
2019-06-15T09:27:49.595Z,99729.67
2019-06-15T09:30:22.053Z,99726.05
2019-06-15T09:32:54.975Z,99737.05
2019-06-15T09:35:27.208Z,99731.31
2019-06-15T09:37:59.532Z,99742.92
2019-06-15T09:40:31.889Z,99747.88
2019-06-15T09:43:04.851Z,99760.12
2019-06-15T09:45:39.592Z,99758.09
2019-06-15T09:48:11.935Z,99761.77
2019-06-15T09:50:46.864Z,99764.87
2019-06-15T09:53:19.585Z,99770.04
2019-06-15T09:55:51.941Z,99786.05
2019-06-15T09:58:24.215Z,99784.08
2019-06-15T10:00:58.692Z,99784.48
2019-06-15T10:03:33.843Z,99793.11
2019-06-15T10:06:11.606Z,99782.44
2019-06-15T10:08:46.402Z,99791.38
2019-06-15T10:11:18.623Z,99796.14
2019-06-15T10:13:50.867Z,99789.42
2019-06-15T10:16:24.960Z,99784.77
2019-06-15T10:18:57.382Z,99791.09
2019-06-15T10:21:30.750Z,99791.53
2019-06-15T10:24:03.739Z,99795.58
2019-06-15T10:26:36.266Z,99809.08
2019-06-15T10:29:13.356Z,99806.73
2019-06-15T10:31:45.605Z,99812.86
2019-06-15T10:34:17.997Z,99817.86
2019-06-15T10:36:50.732Z,99817.78
2019-06-15T10:39:24.825Z,99817.66
2019-06-15T10:41:57.120Z,99818.75
2019-06-15T10:44:30.499Z,99820.34
2019-06-15T10:47:08.340Z,99823.23
2019-06-15T10:49:41.933Z,99826.31
2019-06-15T10:52:14.189Z,99827.41
2019-06-15T10:54:46.467Z,99831.77
2019-06-15T10:57:18.836Z,99838.75
2019-06-15T10:59:57.444Z,99843.34
2019-06-15T11:02:30.256Z,99844.25
2019-06-15T11:05:03.286Z,99849.69
2019-06-15T11:07:35.763Z,99844.66
2019-06-15T11:10:13.792Z,99850.67
2019-06-15T11:12:47.109Z,99856.53
2019-06-15T11:15:28.520Z,99859.71
2019-06-15T11:18:00.861Z,99860.00
2019-06-15T11:20:33.406Z,99868.98
2019-06-15T11:23:05.709Z,99870.56
2019-06-15T11:25:39.682Z,99876.45
2019-06-15T11:28:16.088Z,99874.97
2019-06-15T11:30:50.557Z,99874.94
2019-06-15T11:33:22.935Z,99883.05
2019-06-15T11:35:55.222Z,99890.23
2019-06-15T11:38:27.689Z,99893.53
2019-06-15T11:40:59.915Z,99885.13
2019-06-15T11:43:32.409Z,99888.13
2019-06-15T11:46:04.730Z,99883.83
2019-06-15T11:48:37.048Z,99902.70
2019-06-15T11:51:09.302Z,99899.34
2019-06-15T11:53:41.549Z,99890.95
2019-06-15T11:56:13.906Z,99892.49
2019-06-15T11:58:46.128Z,99896.89
2019-06-15T12:01:19.068Z,99899.23
2019-06-15T12:03:51.471Z,99914.96
2019-06-15T12:06:23.737Z,99911.75
2019-06-15T12:08:55.982Z,99914.02
2019-06-15T12:11:28.277Z,99911.66
2019-06-15T12:14:00.564Z,99920.45
2019-06-15T12:16:32.961Z,99923.39
2019-06-15T12:19:05.261Z,99922.55
2019-06-15T12:21:37.519Z,99924.58
2019-06-15T12:24:09.740Z,99914.60
2019-06-15T12:26:42.091Z,99917.19
2019-06-15T12:29:14.315Z,99914.50
2019-06-15T12:31:47.695Z,99918.06
2019-06-15T12:34:21.212Z,99918.87
2019-06-15T12:36:53.679Z,99918.95
2019-06-15T12:39:25.976Z,99912.89
2019-06-15T12:41:57.513Z,99913.08
2019-06-15T12:44:29.923Z,99915.30
2019-06-15T12:47:02.341Z,99917.92
2019-06-15T12:49:34.596Z,99914.31
2019-06-15T12:52:06.867Z,99917.56
2019-06-15T12:54:39.112Z,99919.77
2019-06-15T12:57:11.350Z,99909.83
2019-06-15T12:59:43.706Z,99922.04
2019-06-15T13:02:17.056Z,99916.81
2019-06-15T13:04:49.601Z,99922.38
2019-06-15T13:07:21.896Z,99931.94
2019-06-15T13:09:54.196Z,99934.78
2019-06-15T13:12:26.516Z,99931.89
2019-06-15T13:14:58.781Z,99943.16
2019-06-15T13:17:31.152Z,99936.73
2019-06-15T13:20:35.594Z,99946.89
2019-06-15T13:23:08.214Z,99943.04
2019-06-15T13:25:40.860Z,99939.75
2019-06-15T13:28:13.611Z,99940.42
2019-06-15T13:30:46.616Z,99939.13
2019-06-15T13:33:19.123Z,99940.19
2019-06-15T13:35:52.556Z,99942.39
2019-06-15T13:38:25.494Z,99946.82
2019-06-15T13:40:58.129Z,99946.21
2019-06-15T13:43:30.783Z,99945.60
2019-06-15T13:46:03.481Z,99945.20
2019-06-15T13:48:36.185Z,99943.18
2019-06-15T13:51:08.812Z,99946.95
2019-06-15T13:53:41.417Z,99942.00
2019-06-15T13:56:14.044Z,99952.67
2019-06-15T13:58:46.675Z,99945.39
2019-06-15T14:01:33.304Z,99946.01
2019-06-15T14:04:07.023Z,99947.87
2019-06-15T14:06:39.629Z,99953.30
2019-06-15T14:09:12.137Z,99951.12
2019-06-15T14:11:45.428Z,99951.18
2019-06-15T14:14:18.159Z,99953.42
2019-06-15T14:16:51.560Z,99945.80
2019-06-15T14:19:24.862Z,99951.80
2019-06-15T14:21:57.550Z,99951.29
2019-06-15T14:24:30.233Z,99950.64
2019-06-15T14:27:02.930Z,99948.92
2019-06-15T14:29:36.057Z,99957.14
2019-06-15T14:32:08.619Z,99947.72
2019-06-15T14:34:41.217Z,99948.80
2019-06-15T14:37:14.754Z,99948.48
2019-06-15T14:39:47.993Z,99941.80
2019-06-15T14:42:20.614Z,99952.67
2019-06-15T14:44:53.327Z,99949.20
2019-06-15T14:47:26.005Z,99946.28
2019-06-15T14:50:00.368Z,99956.51
2019-06-15T14:52:32.920Z,99959.16
2019-06-15T14:55:07.329Z,99959.85
2019-06-15T14:57:40.237Z,99953.26
2019-06-15T15:00:16.699Z,99962.41
2019-06-15T15:02:49.804Z,99967.14
2019-06-15T15:05:22.479Z,99965.23
2019-06-15T15:07:56.219Z,99972.27
2019-06-15T15:10:29.017Z,99968.07
2019-06-15T15:13:01.858Z,99964.95
2019-06-15T15:15:36.273Z,99965.29
2019-06-15T15:18:09.379Z,99975.11
2019-06-15T15:20:41.900Z,99980.82
2019-06-15T15:23:14.501Z,99972.80
2019-06-15T15:25:48.063Z,99973.62
2019-06-15T15:28:20.560Z,99965.36
2019-06-15T15:31:07.591Z,99971.17
2019-06-15T15:33:40.712Z,99973.42
2019-06-15T15:36:16.885Z,99969.66
2019-06-15T15:38:49.683Z,99979.38
2019-06-15T15:41:26.426Z,99983.97
2019-06-15T15:43:59.055Z,99975.94
2019-06-15T15:46:32.242Z,99975.73
2019-06-15T15:49:06.899Z,99977.83
2019-06-15T15:51:40.515Z,99976.98
2019-06-15T15:54:14.248Z,99968.40
2019-06-15T15:56:50.160Z,99964.48
2019-06-15T15:59:22.799Z,99964.84
2019-06-15T16:01:56.617Z,99962.19
2019-06-15T16:04:29.069Z,99960.85
2019-06-15T16:07:01.346Z,99957.00
2019-06-15T16:09:35.927Z,99951.25
2019-06-15T16:12:08.430Z,99960.45
2019-06-15T16:14:40.658Z,99965.65
2019-06-15T16:17:13.044Z,99962.75
2019-06-15T16:19:45.392Z,99964.58
2019-06-15T16:22:17.710Z,99967.02
2019-06-15T16:24:57.940Z,99973.05
2019-06-15T16:27:31.440Z,99975.61
2019-06-15T16:30:06.454Z,99975.61
2019-06-15T16:32:59.968Z,99974.22
2019-06-15T16:35:36.087Z,99963.65
2019-06-15T16:38:11.532Z,99963.34
2019-06-15T16:40:46.929Z,99965.39
2019-06-15T16:43:20.391Z,99962.27
2019-06-15T16:45:52.769Z,99956.50
2019-06-15T16:48:26.158Z,99963.89
2019-06-15T16:50:59.027Z,99969.68
2019-06-15T16:53:31.448Z,99967.39
2019-06-15T16:56:06.045Z,99962.16
2019-06-15T16:58:38.620Z,99965.30
2019-06-15T17:01:11.013Z,99962.71
2019-06-15T17:03:43.440Z,99963.42
2019-06-15T17:06:15.754Z,99965.25
2019-06-15T17:08:49.064Z,99965.22
2019-06-15T17:11:22.415Z,99962.42
2019-06-15T17:13:57.816Z,99963.14
2019-06-15T17:16:30.170Z,99958.13
2019-06-15T17:19:06.855Z,99957.17
2019-06-15T17:21:40.663Z,99949.47
2019-06-15T17:24:16.939Z,99946.66
2019-06-15T17:26:51.777Z,99941.31
2019-06-15T17:29:28.466Z,99942.44
2019-06-15T17:32:03.100Z,99943.38
2019-06-15T17:34:36.402Z,99947.81
2019-06-15T17:37:09.131Z,99947.60
2019-06-15T17:39:42.223Z,99949.87
2019-06-15T17:42:16.417Z,99952.70
2019-06-15T17:44:50.108Z,99953.80
2019-06-15T17:47:22.557Z,99945.08
2019-06-15T17:49:56.234Z,99946.81
2019-06-15T17:52:28.763Z,99943.77
2019-06-15T17:55:03.827Z,99948.80
2019-06-15T17:57:36.153Z,99949.41
2019-06-15T18:00:09.312Z,99951.15
2019-06-15T18:02:41.592Z,99948.00
2019-06-15T18:05:13.918Z,99949.27
2019-06-15T18:07:46.949Z,99949.13
2019-06-15T18:10:19.511Z,99951.50
2019-06-15T18:12:51.922Z,99951.27
2019-06-15T18:15:26.443Z,99954.54
2019-06-15T18:17:59.086Z,99954.77
2019-06-15T18:20:31.389Z,99958.86
2019-06-15T18:23:05.882Z,99960.95
2019-06-15T18:25:42.429Z,99958.78
2019-06-15T18:28:17.868Z,99955.36
2019-06-15T18:30:51.164Z,99955.52
2019-06-15T18:33:27.213Z,99959.62
2019-06-15T18:36:00.319Z,99963.71
2019-06-15T18:38:32.614Z,99960.12
2019-06-15T18:41:07.093Z,99958.07
2019-06-15T18:43:39.689Z,99954.91
2019-06-15T18:46:12.163Z,99947.84
2019-06-15T18:48:46.876Z,99948.47
2019-06-15T18:51:22.660Z,99944.64
2019-06-15T18:53:56.210Z,99941.08
2019-06-15T18:56:28.643Z,99938.25
2019-06-15T18:59:01.015Z,99935.61
2019-06-15T19:01:33.973Z,99943.78
2019-06-15T19:04:06.757Z,99944.28
2019-06-15T19:06:46.612Z,99947.27
2019-06-15T19:09:19.792Z,99952.17
2019-06-15T19:11:56.605Z,99956.94
2019-06-15T19:14:32.193Z,99960.99
2019-06-15T19:17:06.058Z,99962.84
2019-06-15T19:19:42.293Z,99967.84
2019-06-15T19:22:17.139Z,99972.12
2019-06-15T19:24:50.626Z,99974.51
2019-06-15T19:27:25.961Z,99972.19
2019-06-15T19:30:00.926Z,99970.48
2019-06-15T19:32:36.873Z,99973.00
2019-06-15T19:35:09.854Z,99985.53
2019-06-15T19:37:43.257Z,99989.78
2019-06-15T19:40:16.165Z,99991.60
2019-06-15T19:42:52.651Z,99992.06
2019-06-15T19:45:37.473Z,99997.40
2019-06-15T19:48:31.595Z,99999.54
2019-06-15T19:51:04.084Z,100003.40
2019-06-15T19:53:36.553Z,100009.21
2019-06-15T19:56:08.899Z,100016.92
2019-06-15T19:58:42.050Z,100012.09
2019-06-15T20:01:28.241Z,100003.13
2019-06-15T20:04:06.551Z,100000.37
2019-06-15T20:06:43.351Z,100011.63
2019-06-15T20:09:16.393Z,100013.42
2019-06-15T20:11:49.699Z,100022.85
2019-06-15T20:14:22.119Z,100033.84
2019-06-15T20:16:56.103Z,100043.60
2019-06-15T20:19:29.511Z,100040.97
2019-06-15T20:22:03.167Z,100041.68
2019-06-15T20:24:36.447Z,100051.80
2019-06-15T20:27:10.461Z,100042.75
2019-06-15T20:29:47.741Z,100041.15
2019-06-15T20:32:21.437Z,100039.38
2019-06-15T20:34:55.818Z,100039.16
2019-06-15T20:37:28.263Z,100041.59
2019-06-15T20:40:04.670Z,100042.54
2019-06-15T20:42:38.123Z,100041.50
2019-06-15T20:45:10.623Z,100045.72
2019-06-15T20:47:49.492Z,100047.57
2019-06-15T20:50:28.205Z,100047.24
2019-06-15T20:53:07.202Z,100049.42
2019-06-15T20:55:41.033Z,100050.92
2019-06-15T20:58:16.686Z,100048.71
2019-06-15T21:00:51.203Z,100043.30
2019-06-15T21:03:26.881Z,100046.95
2019-06-15T21:05:59.860Z,100056.34
2019-06-15T21:08:33.265Z,100053.20
2019-06-15T21:11:07.140Z,100058.55
2019-06-15T21:13:40.910Z,100060.91
2019-06-15T21:16:13.645Z,100068.66
2019-06-15T21:18:46.894Z,100069.31
2019-06-15T21:21:19.744Z,100071.86
2019-06-15T21:23:52.342Z,100067.33
2019-06-15T21:26:27.014Z,100075.59
2019-06-15T21:28:59.577Z,100076.09
2019-06-15T21:31:36.605Z,100075.56
2019-06-15T21:34:09.697Z,100072.82
2019-06-15T21:36:42.047Z,100078.98
2019-06-15T21:39:15.590Z,100086.72
2019-06-15T21:41:50.746Z,100091.87
2019-06-15T21:44:26.562Z,100097.48
2019-06-15T21:47:06.811Z,100096.20
2019-06-15T21:49:40.202Z,100102.52
2019-06-15T21:52:13.280Z,100115.95
2019-06-15T21:54:46.794Z,100112.27
2019-06-15T21:57:19.355Z,100112.48
2019-06-15T21:59:50.913Z,100115.30
2019-06-15T22:02:26.621Z,100117.23
2019-06-15T22:04:59.158Z,100122.90
2019-06-15T22:07:32.112Z,100122.69
2019-06-15T22:10:06.496Z,100117.92
2019-06-15T22:12:39.045Z,100128.27
2019-06-15T22:15:15.965Z,100130.72
2019-06-15T22:17:48.505Z,100136.44
2019-06-15T22:20:20.824Z,100143.12
2019-06-15T22:22:53.206Z,100145.14
2019-06-15T22:25:26.787Z,100158.17
2019-06-15T22:27:59.044Z,100163.93
2019-06-15T22:30:31.425Z,100169.98
2019-06-15T22:33:03.689Z,100167.02
2019-06-15T22:35:36.405Z,100169.23
2019-06-15T22:38:08.858Z,100167.62
2019-06-15T22:40:46.997Z,100168.59
2019-06-15T22:43:20.162Z,100167.02
2019-06-15T22:45:52.434Z,100167.31
2019-06-15T22:48:27.036Z,100172.09
2019-06-15T22:51:00.208Z,100177.78
2019-06-15T22:53:32.659Z,100180.02
2019-06-15T22:56:06.595Z,100180.61
2019-06-15T22:58:39.369Z,100181.19
2019-06-15T23:01:11.884Z,100192.38
2019-06-15T23:03:46.315Z,100195.48
2019-06-15T23:06:31.186Z,100195.75
2019-06-15T23:09:09.425Z,100196.70
2019-06-15T23:11:41.797Z,100199.89
2019-06-15T23:14:13.742Z,100199.55
2019-06-15T23:16:47.482Z,100201.75
2019-06-15T23:19:20.230Z,100201.03
2019-06-15T23:21:52.591Z,100197.38
2019-06-15T23:24:27.100Z,100188.03
2019-06-15T23:26:59.566Z,100183.20
2019-06-15T23:29:31.900Z,100194.83
2019-06-15T23:32:06.309Z,100201.50
2019-06-15T23:34:38.822Z,100201.27
2019-06-15T23:37:15.782Z,100203.41
2019-06-15T23:39:55.686Z,100197.83
2019-06-15T23:42:29.452Z,100196.00
2019-06-15T23:45:01.791Z,100202.05
2019-06-15T23:47:36.889Z,100199.48
2019-06-15T23:50:09.478Z,100200.83
2019-06-15T23:52:42.125Z,100202.19
2019-06-15T23:55:14.555Z,100201.36
2019-06-15T23:57:49.300Z,100214.45
